Terminal Aerodrome Forecast
Issued by NWS

Home | Current Version | Previous Version | Text Only | Print | Product List | Glossary On
Versions: 1 2 3 4 5 6 7 8 9 10 11 12 13 14 15 16 17 18 19
180
FTUS41 KBGM 201120
TAFRME
TAF
KRME 201120Z 2012/2112 00000KT P6SM OVC015
     FM201900 11007KT P6SM BKN025
     FM210100 11006KT 5SM -SHRA BR OVC008
     FM210400 11005KT 4SM BR OVC003=

USA.gov is the U.S. government's official web portal to all federal, state and local government web resources and services.